Time;durP1;ratioP1;P1;durP2;ratioP2;P2;SDS_P1;SDS_P2;PMS_P1;PMS_P2;Temp;Humidity;BMP_temperature;BMP_pressure;BME280_temperature;BME280_humidity;BME280_pressure;Samples;Min_cycle;Max_cycle;Signal;HPM_P1;HPM_P2
2021/01/15 00:00:20;;;;;;;12.15;5.60;;;1.70;99.90;;;;;;4968616;28;20366;-89
2021/01/15 00:02:46;;;;;;;8.77;6.18;;;1.70;99.90;;;;;;4952059;28;20652;-90
2021/01/15 00:05:12;;;;;;;8.68;4.72;;;1.70;99.90;;;;;;4969995;28;20047;-89
2021/01/15 00:07:38;;;;;;;7.43;3.58;;;1.70;99.90;;;;;;4992108;28;20093;-88
2021/01/15 00:10:04;;;;;;;13.32;7.22;;;1.70;99.90;;;;;;4976462;28;20425;-88
2021/01/15 00:12:30;;;;;;;14.77;6.53;;;1.70;99.90;;;;;;4972026;28;20386;-89
2021/01/15 00:14:56;;;;;;;9.07;6.82;;;1.70;99.90;;;;;;4973767;28;20105;-89
2021/01/15 00:17:22;;;;;;;12.85;6.30;;;1.70;99.90;;;;;;4940337;28;20043;-89
2021/01/15 00:19:49;;;;;;;11.70;5.63;;;1.70;99.90;;;;;;4971638;28;20339;-89
2021/01/15 00:22:15;;;;;;;8.60;4.80;;;1.70;99.90;;;;;;4956061;28;20059;-86
2021/01/15 00:24:41;;;;;;;12.00;7.32;;;1.70;99.90;;;;;;4952592;28;20118;-86
2021/01/15 00:27:07;;;;;;;9.00;4.80;;;1.60;99.90;;;;;;4979727;28;20042;-86
2021/01/15 00:29:33;;;;;;;10.80;6.28;;;1.70;99.90;;;;;;4971140;28;20046;-86
2021/01/15 00:31:59;;;;;;;8.48;5.38;;;1.70;99.90;;;;;;4971923;28;20053;-86
2021/01/15 00:34:24;;;;;;;8.20;5.85;;;1.70;99.90;;;;;;4953585;28;20077;-85
2021/01/15 00:36:50;;;;;;;9.52;5.57;;;1.70;99.90;;;;;;4961226;28;20499;-86
2021/01/15 00:39:16;;;;;;;10.32;4.75;;;1.70;99.90;;;;;;4970773;28;20125;-86
2021/01/15 00:41:44;;;;;;;9.52;6.00;;;1.70;99.90;;;;;;4954994;28;20054;-86
2021/01/15 00:44:11;;;;;;;16.67;6.55;;;1.70;99.90;;;;;;4972092;28;20086;-86
2021/01/15 00:46:45;;;;;;;5.70;4.95;;;1.70;99.90;;;;;;4971079;28;20408;-85
2021/01/15 00:49:14;;;;;;;11.23;4.70;;;1.70;99.90;;;;;;4969375;28;20065;-86
2021/01/15 00:51:47;;;;;;;6.82;4.35;;;1.70;99.90;;;;;;4971032;28;20046;-85
2021/01/15 00:54:13;;;;;;;8.52;4.10;;;1.70;99.90;;;;;;4971958;28;20043;-86
2021/01/15 00:56:38;;;;;;;11.35;5.43;;;1.70;99.90;;;;;;4970938;28;20057;-86
2021/01/15 00:59:04;;;;;;;7.47;4.03;;;1.80;99.90;;;;;;4971729;28;20081;-86
2021/01/15 01:01:30;;;;;;;10.70;5.40;;;1.80;99.90;;;;;;4966630;28;20046;-87
2021/01/15 01:03:56;;;;;;;5.10;4.03;;;1.70;99.90;;;;;;4986816;28;20043;-85
2021/01/15 01:06:23;;;;;;;7.25;3.60;;;1.80;98.80;;;;;;4971329;28;20125;-86
2021/01/15 01:08:49;;;;;;;6.60;4.45;;;1.90;98.60;;;;;;4954502;28;20102;-86
2021/01/15 01:11:23;;;;;;;7.40;4.70;;;1.80;98.90;;;;;;4971244;28;20046;-86
2021/01/15 01:13:51;;;;;;;8.57;5.00;;;1.80;98.90;;;;;;4970844;28;20097;-87
2021/01/15 01:16:18;;;;;;;8.57;5.47;;;1.80;99.40;;;;;;4968660;28;20047;-86
2021/01/15 01:18:45;;;;;;;9.65;5.25;;;1.90;99.60;;;;;;4961543;28;20102;-87
2021/01/15 01:21:12;;;;;;;9.27;5.70;;;1.80;99.40;;;;;;4953267;28;20059;-86
2021/01/15 01:23:41;;;;;;;10.45;5.97;;;1.80;99.20;;;;;;4970637;28;20039;-87
2021/01/15 01:26:07;;;;;;;7.82;5.20;;;1.80;99.30;;;;;;4971045;28;20097;-86
2021/01/15 01:28:33;;;;;;;16.27;5.22;;;1.80;99.30;;;;;;4938405;28;20436;-89
2021/01/15 01:31:02;;;;;;;7.40;4.72;;;1.80;99.20;;;;;;4955318;28;20054;-87
2021/01/15 01:33:28;;;;;;;9.77;5.47;;;1.80;98.80;;;;;;4971202;28;20121;-86
2021/01/15 01:35:56;;;;;;;6.93;5.13;;;1.80;98.90;;;;;;4970019;28;20138;-87
2021/01/15 01:38:22;;;;;;;10.27;6.28;;;1.80;98.80;;;;;;4968767;28;20448;-86
2021/01/15 01:40:48;;;;;;;6.85;5.22;;;1.80;98.90;;;;;;4985066;28;20038;-89
2021/01/15 01:43:14;;;;;;;6.55;3.92;;;1.90;99.20;;;;;;4952290;28;20075;-89
2021/01/15 01:45:40;;;;;;;7.15;4.40;;;1.90;96.50;;;;;;4966838;28;20378;-89
2021/01/15 01:48:07;;;;;;;6.65;4.65;;;1.90;96.40;;;;;;4968655;28;20042;-89
2021/01/15 01:50:34;;;;;;;10.10;4.53;;;1.90;96.90;;;;;;4967511;28;20540;-89
2021/01/15 01:53:03;;;;;;;6.22;4.47;;;1.90;97.70;;;;;;4972969;28;20093;-88
2021/01/15 01:55:29;;;;;;;8.40;4.13;;;1.90;97.00;;;;;;4978461;28;20117;-88
2021/01/15 01:57:55;;;;;;;6.70;5.15;;;1.90;97.00;;;;;;4974826;28;20046;-89
2021/01/15 02:00:21;;;;;;;7.32;4.38;;;2.10;97.30;;;;;;4976237;28;20145;-89
2021/01/15 02:02:46;;;;;;;8.75;4.75;;;2.00;97.30;;;;;;4956584;28;20513;-89
2021/01/15 02:05:13;;;;;;;6.20;4.25;;;2.00;97.40;;;;;;4952351;28;20038;-90
2021/01/15 02:07:39;;;;;;;14.13;5.05;;;2.00;97.30;;;;;;4975983;28;20074;-90
2021/01/15 02:10:43;;;;;;;7.47;4.88;;;2.00;97.20;;;;;;4986651;28;20650;-90
2021/01/15 02:13:21;;;;;;;7.93;5.18;;;2.00;97.50;;;;;;4909350;29;20064;-88
2021/01/15 02:15:56;;;;;;;9.52;4.82;;;2.00;97.60;;;;;;4907102;29;20068;-88
2021/01/15 02:18:35;;;;;;;7.43;5.22;;;2.00;97.40;;;;;;4945216;28;20409;-88
2021/01/15 02:21:20;;;;;;;6.43;5.13;;;2.00;97.70;;;;;;4968892;28;20072;-89
2021/01/15 02:23:48;;;;;;;6.22;4.90;;;2.00;97.90;;;;;;4969601;28;20050;-88
2021/01/15 02:26:52;;;;;;;7.38;4.47;;;2.00;97.50;;;;;;4953857;28;20065;-88
2021/01/15 02:29:21;;;;;;;8.85;4.55;;;2.00;97.50;;;;;;4969349;28;20043;-88
2021/01/15 02:31:46;;;;;;;6.13;4.53;;;2.00;97.70;;;;;;4969267;28;20445;-88
2021/01/15 02:34:36;;;;;;;8.48;4.32;;;2.00;97.90;;;;;;4969987;28;20121;-88
2021/01/15 02:37:16;;;;;;;5.22;4.40;;;2.00;97.60;;;;;;4974923;28;20053;-88
2021/01/15 02:40:00;;;;;;;5.05;4.10;;;2.00;97.70;;;;;;4956840;28;20043;-89
2021/01/15 02:42:26;;;;;;;2.90;2.70;;;2.10;98.10;;;;;;4970000;28;20206;-88
2021/01/15 02:44:54;;;;;;;2.80;2.60;;;2.10;97.10;;;;;;4953273;28;20129;-89
2021/01/15 02:47:39;;;;;;;2.97;2.25;;;2.20;95.90;;;;;;4961630;28;20067;-88
2021/01/15 02:50:10;;;;;;;4.18;3.10;;;2.30;95.40;;;;;;4967561;28;20035;-88
2021/01/15 02:52:36;;;;;;;4.72;3.25;;;2.20;96.20;;;;;;4970033;28;20039;-89
2021/01/15 02:55:03;;;;;;;3.58;3.08;;;2.30;96.00;;;;;;4968592;28;20050;-87
2021/01/15 02:57:29;;;;;;;5.45;3.20;;;2.30;96.10;;;;;;4946895;28;20037;-88
2021/01/15 02:59:55;;;;;;;5.63;3.80;;;2.20;96.50;;;;;;4964177;28;20050;-88
2021/01/15 03:02:26;;;;;;;7.70;4.53;;;2.20;96.90;;;;;;4953608;28;20499;-89
2021/01/15 03:05:00;;;;;;;4.78;3.85;;;2.20;96.90;;;;;;4970130;28;20038;-89
2021/01/15 03:07:27;;;;;;;7.85;4.38;;;2.20;96.80;;;;;;4937632;28;20434;-89
2021/01/15 03:09:56;;;;;;;8.90;4.68;;;2.20;96.90;;;;;;4962950;28;20091;-86
2021/01/15 03:12:25;;;;;;;7.55;4.55;;;2.20;97.00;;;;;;4970508;28;20049;-87
2021/01/15 03:14:54;;;;;;;11.80;4.75;;;2.10;97.40;;;;;;4968701;28;20378;-86
2021/01/15 03:17:34;;;;;;;7.43;4.67;;;2.10;97.30;;;;;;4953633;28;20042;-87
2021/01/15 03:20:03;;;;;;;5.32;4.40;;;2.10;97.70;;;;;;4966052;28;20103;-86
2021/01/15 03:22:29;;;;;;;5.80;5.15;;;2.10;97.60;;;;;;4964697;28;20519;-86
2021/01/15 03:24:57;;;;;;;5.93;5.20;;;2.10;98.40;;;;;;4970041;28;20043;-87
2021/01/15 03:27:37;;;;;;;7.45;5.50;;;2.10;97.80;;;;;;4969513;28;20050;-89
2021/01/15 03:30:04;;;;;;;7.88;4.90;;;2.10;97.70;;;;;;4953011;28;20893;-87
2021/01/15 03:32:29;;;;;;;9.05;5.03;;;2.10;97.70;;;;;;4969232;28;20181;-86
2021/01/15 03:34:55;;;;;;;11.45;5.50;;;2.10;97.90;;;;;;4952782;28;20121;-86
2021/01/15 03:37:21;;;;;;;5.68;4.45;;;2.10;97.70;;;;;;4963787;28;20660;-86
2021/01/15 03:39:47;;;;;;;7.15;4.75;;;2.00;97.70;;;;;;4953010;28;20050;-86
2021/01/15 03:42:12;;;;;;;5.40;4.38;;;2.20;97.60;;;;;;4940764;28;20049;-86
2021/01/15 03:44:38;;;;;;;5.70;4.80;;;2.20;97.80;;;;;;4957034;28;20050;-86
2021/01/15 03:47:04;;;;;;;8.00;4.72;;;2.10;97.70;;;;;;4955708;28;20273;-86
2021/01/15 03:49:30;;;;;;;7.00;4.63;;;2.10;97.50;;;;;;4949608;28;20052;-86
2021/01/15 03:51:56;;;;;;;9.98;4.82;;;2.10;97.80;;;;;;4972607;28;20049;-86
2021/01/15 03:54:22;;;;;;;7.00;4.20;;;2.10;97.90;;;;;;4944333;28;20050;-86
2021/01/15 03:56:50;;;;;;;6.40;5.13;;;2.10;98.10;;;;;;4972243;28;20599;-87
2021/01/15 03:59:17;;;;;;;6.50;5.10;;;2.10;98.20;;;;;;4968095;28;20074;-86
2021/01/15 04:01:43;;;;;;;7.82;5.43;;;2.00;98.20;;;;;;4973059;28;20053;-86
2021/01/15 04:04:09;;;;;;;8.90;5.43;;;2.00;98.20;;;;;;4956102;28;20043;-87
2021/01/15 04:06:34;;;;;;;8.63;5.65;;;2.00;98.60;;;;;;4950831;28;20397;-87
2021/01/15 04:09:00;;;;;;;7.82;5.95;;;2.00;98.70;;;;;;4974098;28;20074;-86
2021/01/15 04:11:26;;;;;;;8.25;5.68;;;2.00;98.90;;;;;;4972699;28;20118;-87
2021/01/15 04:13:52;;;;;;;7.25;5.25;;;2.00;98.90;;;;;;4987770;28;20124;-87
2021/01/15 04:16:18;;;;;;;7.70;5.28;;;2.00;98.90;;;;;;4960325;28;20130;-87
2021/01/15 04:18:43;;;;;;;6.88;5.22;;;1.90;99.40;;;;;;4966404;28;20049;-88
2021/01/15 04:21:14;;;;;;;8.43;5.65;;;1.90;99.30;;;;;;4939386;28;20667;-88
2021/01/15 04:23:39;;;;;;;8.45;5.97;;;1.90;99.20;;;;;;4957125;28;20043;-88
2021/01/15 04:26:05;;;;;;;6.53;5.22;;;1.90;99.30;;;;;;4971525;28;20121;-88
2021/01/15 04:28:31;;;;;;;9.85;6.00;;;1.90;99.40;;;;;;4956148;28;20585;-88
2021/01/15 04:30:57;;;;;;;7.40;5.85;;;1.90;99.50;;;;;;4966261;28;20047;-88
2021/01/15 04:33:23;;;;;;;6.57;5.00;;;1.90;99.80;;;;;;4971789;28;20037;-88
2021/01/15 04:35:48;;;;;;;6.13;5.20;;;1.90;99.70;;;;;;4955315;28;20050;-90
2021/01/15 04:38:14;;;;;;;11.50;5.70;;;1.90;99.80;;;;;;4971357;28;20084;-88
2021/01/15 04:40:40;;;;;;;8.05;5.13;;;2.00;99.90;;;;;;4997770;28;20049;-88
2021/01/15 04:43:07;;;;;;;6.90;5.60;;;1.90;99.90;;;;;;4980613;28;20126;-87
2021/01/15 04:45:33;;;;;;;8.32;4.80;;;1.90;99.80;;;;;;4974688;28;20397;-87
2021/01/15 04:48:00;;;;;;;6.13;4.90;;;1.90;99.70;;;;;;4975480;28;20039;-88
2021/01/15 04:50:27;;;;;;;6.85;4.65;;;1.90;99.90;;;;;;4962405;28;20122;-87
2021/01/15 04:52:56;;;;;;;7.40;4.20;;;1.90;99.90;;;;;;4966569;28;20089;-90
2021/01/15 04:55:23;;;;;;;5.18;4.63;;;2.00;99.90;;;;;;4977871;28;20050;-88
2021/01/15 04:57:54;;;;;;;10.50;5.30;;;1.90;99.90;;;;;;4987648;28;20137;-89
2021/01/15 05:00:25;;;;;;;6.15;3.97;;;1.90;99.90;;;;;;4978939;28;20544;-89
2021/01/15 05:02:52;;;;;;;7.90;4.50;;;1.90;99.90;;;;;;4973070;28;20407;-90
2021/01/15 05:05:26;;;;;;;8.38;3.80;;;1.90;99.90;;;;;;4979582;28;20050;-89
2021/01/15 05:08:11;;;;;;;4.25;3.58;;;1.90;99.90;;;;;;4968965;28;20061;-89
2021/01/15 05:10:45;;;;;;;3.65;3.22;;;1.90;99.90;;;;;;4973022;28;20050;-89
2021/01/15 05:13:16;;;;;;;8.65;3.55;;;1.90;99.90;;;;;;4972604;28;20050;-90
2021/01/15 05:15:44;;;;;;;3.33;2.92;;;1.90;99.90;;;;;;4971668;28;20050;-89
2021/01/15 05:18:11;;;;;;;4.80;3.13;;;1.90;99.90;;;;;;4939171;28;20465;-89
2021/01/15 05:20:37;;;;;;;4.57;3.28;;;1.90;99.90;;;;;;4971848;28;20051;-89
2021/01/15 05:23:05;;;;;;;5.57;3.33;;;1.90;99.80;;;;;;4954825;28;20523;-89
2021/01/15 05:25:33;;;;;;;3.70;3.22;;;1.90;99.80;;;;;;4968649;28;20130;-89
2021/01/15 05:27:59;;;;;;;4.38;3.65;;;1.90;99.80;;;;;;4968670;28;20061;-89
2021/01/15 05:30:27;;;;;;;6.70;3.90;;;2.00;99.70;;;;;;4968487;28;20569;-89
2021/01/15 05:32:56;;;;;;;8.30;3.42;;;1.90;99.60;;;;;;4985314;28;20035;-89
2021/01/15 05:35:37;;;;;;;5.85;3.45;;;1.90;99.60;;;;;;4971015;28;20061;-89
2021/01/15 05:38:03;;;;;;;4.57;3.20;;;1.90;99.70;;;;;;4970382;28;20042;-88
2021/01/15 05:40:42;;;;;;;8.02;3.60;;;2.00;99.80;;;;;;4949195;28;20047;-89
2021/01/15 05:43:42;;;;;;;5.97;3.90;;;1.90;99.70;;;;;;4967352;28;20388;-89
2021/01/15 05:46:22;;;;;;;9.95;4.05;;;1.90;99.90;;;;;;4957152;28;20054;-89
2021/01/15 05:48:59;;;;;;;6.38;3.53;;;2.00;99.40;;;;;;4956215;28;20524;-89
2021/01/15 05:51:31;;;;;;;3.88;3.17;;;1.90;99.70;;;;;;4970542;28;20097;-89
2021/01/15 05:53:58;;;;;;;6.03;3.28;;;1.90;99.70;;;;;;4971658;28;20230;-89
2021/01/15 05:56:26;;;;;;;6.30;3.28;;;1.90;99.90;;;;;;4969045;28;20050;-89
2021/01/15 05:59:01;;;;;;;9.38;3.20;;;1.90;99.90;;;;;;4986737;28;20042;-89
2021/01/15 06:01:45;;;;;;;7.05;2.80;;;1.90;99.90;;;;;;4970460;28;20121;-89
2021/01/15 06:04:13;;;;;;;3.30;2.78;;;2.00;99.90;;;;;;4958280;28;20053;-88
2021/01/15 06:06:40;;;;;;;10.70;2.25;;;2.00;99.90;;;;;;4953889;28;20420;-88
2021/01/15 06:09:08;;;;;;;4.30;2.08;;;1.90;99.90;;;;;;4970650;28;21664;-88
2021/01/15 06:11:36;;;;;;;13.23;3.22;;;1.70;99.90;;;;;;4971441;28;20039;-88
2021/01/15 06:14:03;;;;;;;3.25;2.97;;;1.40;99.90;;;;;;4985076;28;20101;-88
2021/01/15 06:16:29;;;;;;;10.45;4.55;;;1.30;99.90;;;;;;4967452;28;20050;-87
2021/01/15 06:18:57;;;;;;;12.68;4.55;;;1.20;99.90;;;;;;4954199;28;20043;-86
2021/01/15 06:21:33;;;;;;;8.02;4.72;;;1.10;99.90;;;;;;4968828;28;20061;-89
2021/01/15 06:24:03;;;;;;;6.55;4.30;;;1.00;99.90;;;;;;4959011;28;20051;-88
2021/01/15 06:26:33;;;;;;;6.57;4.53;;;1.10;99.90;;;;;;4969948;28;20485;-88
2021/01/15 06:29:10;;;;;;;11.40;4.88;;;1.10;99.90;;;;;;4967938;28;20047;-88
2021/01/15 06:31:50;;;;;;;5.93;4.60;;;1.10;99.90;;;;;;4958077;28;20039;-88
2021/01/15 06:34:17;;;;;;;8.07;4.65;;;1.00;99.90;;;;;;4969366;28;20528;-89
2021/01/15 06:36:48;;;;;;;6.15;3.47;;;1.10;99.90;;;;;;4970340;28;20117;-88
2021/01/15 06:39:16;;;;;;;8.23;3.85;;;1.10;99.90;;;;;;4969369;28;20038;-86
2021/01/15 06:41:43;;;;;;;6.88;4.28;;;1.20;99.90;;;;;;4969727;28;20053;-87
2021/01/15 06:44:14;;;;;;;8.82;3.97;;;1.20;99.90;;;;;;4964355;28;20039;-88
2021/01/15 06:46:43;;;;;;;7.63;5.25;;;1.20;99.90;;;;;;4969469;28;20035;-88
2021/01/15 06:49:15;;;;;;;14.23;4.93;;;1.30;99.90;;;;;;4977741;28;20047;-87
2021/01/15 06:51:57;;;;;;;9.38;5.03;;;1.30;99.90;;;;;;4968524;28;20043;-88
2021/01/15 06:54:24;;;;;;;;;;;1.30;99.90;;;;;;4953980;28;20238;-87
2021/01/15 06:56:59;;;;;;;9.27;5.18;;;1.30;99.90;;;;;;4970112;28;19926;-88
2021/01/15 06:59:36;;;;;;;8.93;6.07;;;1.30;99.90;;;;;;4969361;28;20050;-87
2021/01/15 07:02:19;;;;;;;8.70;5.72;;;1.30;99.90;;;;;;4965255;28;20043;-91
2021/01/15 07:04:53;;;;;;;9.38;5.45;;;1.30;99.90;;;;;;4966986;28;20039;-89
2021/01/15 07:07:20;;;;;;;17.35;7.15;;;1.30;99.90;;;;;;4978981;28;20043;-88
2021/01/15 07:09:47;;;;;;;13.98;5.68;;;1.20;99.90;;;;;;4945707;28;20051;-89
2021/01/15 07:12:15;;;;;;;9.38;6.47;;;1.40;99.90;;;;;;4969687;28;20062;-88
2021/01/15 07:14:54;;;;;;;9.48;5.68;;;1.30;99.90;;;;;;4957914;28;20050;-87
2021/01/15 07:17:38;;;;;;;9.77;5.38;;;1.30;99.90;;;;;;4969509;28;20035;-88
2021/01/15 07:20:09;;;;;;;13.30;7.20;;;1.30;99.90;;;;;;4959657;28;20046;-89
2021/01/15 07:22:43;;;;;;;;;;;1.30;99.90;;;;;;4970339;28;20050;-88
2021/01/15 07:25:11;;;;;;;11.20;6.22;;;1.30;99.90;;;;;;4960350;28;19929;-88
2021/01/15 07:27:39;;;;;;;10.10;6.13;;;1.30;99.90;;;;;;4980353;28;20083;-90
2021/01/15 07:30:20;;;;;;;13.25;7.10;;;1.40;99.90;;;;;;4986238;28;20146;-90
2021/01/15 07:32:53;;;;;;;12.20;6.63;;;1.30;99.90;;;;;;4972220;28;20047;-89
2021/01/15 07:35:21;;;;;;;9.55;6.20;;;1.40;99.90;;;;;;4974133;28;20050;-88
2021/01/15 07:37:48;;;;;;;12.23;5.57;;;1.30;99.90;;;;;;4982262;28;20073;-87
2021/01/15 07:40:15;;;;;;;17.92;6.55;;;1.30;99.90;;;;;;4977032;28;20042;-89
2021/01/15 07:42:53;;;;;;;11.25;7.32;;;1.30;99.90;;;;;;4989212;28;20047;-89
2021/01/15 07:45:27;;;;;;;10.63;5.97;;;1.30;99.90;;;;;;4976043;28;20038;-88
2021/01/15 07:48:02;;;;;;;7.28;4.80;;;1.30;99.90;;;;;;4958626;28;20054;-87
2021/01/15 07:50:29;;;;;;;14.25;7.28;;;1.30;99.90;;;;;;4984313;28;20555;-87
2021/01/15 07:53:21;;;;;;;9.88;6.55;;;1.30;99.90;;;;;;4987011;28;20121;-88
2021/01/15 07:55:51;;;;;;;;;;;1.30;99.90;;;;;;4959190;28;20050;-88
2021/01/15 07:58:21;;;;;;;12.13;7.57;;;1.30;99.90;;;;;;4944662;28;19926;-89
2021/01/15 08:00:48;;;;;;;12.32;6.20;;;1.30;99.90;;;;;;4981599;28;20129;-89
2021/01/15 08:03:15;;;;;;;13.30;6.78;;;1.20;99.90;;;;;;4958508;28;20050;-88
2021/01/15 08:05:45;;;;;;;12.77;6.85;;;1.30;99.90;;;;;;4967247;28;20628;-89
2021/01/15 08:08:19;;;;;;;10.80;6.57;;;1.30;99.90;;;;;;4964360;28;20098;-90
2021/01/15 08:10:54;;;;;;;18.58;7.50;;;1.40;99.90;;;;;;4950301;28;20098;-89
2021/01/15 08:13:20;;;;;;;10.55;6.63;;;1.30;99.90;;;;;;4974490;28;20464;-87
2021/01/15 08:15:46;;;;;;;15.40;6.82;;;1.30;99.90;;;;;;4965687;28;20142;-87
2021/01/15 08:18:13;;;;;;;16.35;7.78;;;1.30;99.90;;;;;;4967287;28;20050;-87
2021/01/15 08:20:44;;;;;;;13.38;6.50;;;1.30;99.90;;;;;;4978151;28;20034;-86
2021/01/15 08:23:20;;;;;;;10.60;6.63;;;1.30;99.90;;;;;;4980264;28;20133;-87
2021/01/15 08:25:48;;;;;;;12.32;6.78;;;1.40;99.90;;;;;;4963838;28;20050;-85
2021/01/15 08:28:14;;;;;;;11.02;5.65;;;1.50;99.90;;;;;;4968392;28;20117;-85
2021/01/15 08:30:54;;;;;;;14.75;5.53;;;1.40;99.90;;;;;;4955355;28;20117;-85
2021/01/15 08:33:21;;;;;;;11.23;5.68;;;1.40;99.90;;;;;;4974868;28;20038;-88
2021/01/15 08:35:55;;;;;;;9.10;5.38;;;1.40;99.90;;;;;;4976332;28;20061;-86
2021/01/15 08:38:32;;;;;;;7.75;4.68;;;1.40;99.90;;;;;;4971618;28;20070;-88
2021/01/15 08:40:59;;;;;;;9.25;5.68;;;1.50;99.90;;;;;;4971804;28;20880;-87
2021/01/15 08:43:26;;;;;;;9.13;5.03;;;1.50;99.90;;;;;;4983672;28;20059;-88
2021/01/15 08:45:53;;;;;;;9.63;6.03;;;1.60;99.90;;;;;;4969161;28;20054;-87
2021/01/15 08:48:21;;;;;;;10.88;6.07;;;1.50;99.90;;;;;;4953910;28;20126;-88
2021/01/15 08:50:47;;;;;;;6.93;5.13;;;1.50;99.90;;;;;;4965243;28;20055;-88
2021/01/15 08:53:18;;;;;;;5.53;3.90;;;1.50;99.90;;;;;;4952953;28;20449;-88
2021/01/15 08:55:47;;;;;;;4.25;3.78;;;1.60;99.90;;;;;;4971101;28;20097;-87
2021/01/15 08:58:13;;;;;;;5.47;3.67;;;1.50;99.90;;;;;;4984929;28;20039;-90
2021/01/15 09:00:41;;;;;;;4.50;3.50;;;1.60;99.90;;;;;;4954929;28;20051;-89
2021/01/15 09:03:14;;;;;;;7.05;3.47;;;1.60;99.90;;;;;;4969914;28;20042;-88
2021/01/15 09:05:41;;;;;;;9.23;3.97;;;1.60;99.90;;;;;;4951973;28;20050;-88
2021/01/15 09:08:13;;;;;;;3.72;3.25;;;1.60;99.90;;;;;;4972125;28;20085;-88
2021/01/15 09:10:39;;;;;;;5.95;3.83;;;1.60;99.90;;;;;;4971970;28;20125;-88
2021/01/15 09:13:05;;;;;;;7.78;3.92;;;1.80;99.90;;;;;;4965689;28;20055;-88
2021/01/15 09:15:31;;;;;;;11.98;4.28;;;1.60;99.90;;;;;;4957878;28;20046;-88
2021/01/15 09:17:59;;;;;;;8.38;3.25;;;1.60;99.90;;;;;;4967750;28;20043;-88
2021/01/15 09:20:26;;;;;;;6.65;3.80;;;1.70;99.50;;;;;;4957963;28;20035;-88
2021/01/15 09:22:53;;;;;;;4.95;2.53;;;1.60;99.60;;;;;;4958748;28;20069;-87
2021/01/15 09:25:19;;;;;;;4.55;2.90;;;1.70;99.10;;;;;;4968099;28;20057;-89
2021/01/15 09:27:45;;;;;;;4.07;2.88;;;1.60;98.80;;;;;;4967203;28;20058;-90
2021/01/15 09:30:13;;;;;;;2.70;2.38;;;1.60;98.60;;;;;;4971632;28;20050;-89
2021/01/15 09:32:44;;;;;;;3.22;2.10;;;1.70;97.70;;;;;;4969487;28;20489;-88
2021/01/15 09:35:11;;;;;;;5.95;3.15;;;1.80;97.60;;;;;;4970546;28;20070;-89
2021/01/15 09:37:37;;;;;;;6.47;3.47;;;1.70;97.70;;;;;;4959370;28;20043;-87
2021/01/15 09:40:05;;;;;;;3.05;2.30;;;1.80;97.60;;;;;;4968390;28;20039;-89
2021/01/15 09:42:31;;;;;;;3.28;2.97;;;1.80;97.00;;;;;;4968862;28;20497;-89
2021/01/15 09:44:57;;;;;;;3.15;2.85;;;2.20;97.60;;;;;;4968403;28;20038;-89
2021/01/15 09:47:23;;;;;;;5.80;4.15;;;1.80;97.40;;;;;;4984764;28;20251;-89
2021/01/15 09:49:48;;;;;;;7.45;4.22;;;1.80;97.40;;;;;;4952763;28;20051;-90
2021/01/15 09:52:14;;;;;;;4.60;2.92;;;1.80;97.70;;;;;;4973137;28;20489;-90
2021/01/15 09:54:41;;;;;;;3.03;1.90;;;1.90;98.00;;;;;;4956464;28;20113;-90
2021/01/15 09:57:09;;;;;;;4.68;3.25;;;1.80;97.30;;;;;;4954614;28;20059;-90
2021/01/15 09:59:35;;;;;;;7.15;2.42;;;1.80;97.30;;;;;;4973484;28;20049;-91
2021/01/15 10:02:01;;;;;;;7.53;3.30;;;1.80;98.00;;;;;;4973891;28;20397;-90
2021/01/15 10:04:27;;;;;;;7.03;4.43;;;1.90;98.10;;;;;;4951752;28;20039;-91
2021/01/15 10:06:56;;;;;;;4.35;3.95;;;1.80;98.10;;;;;;4956442;28;20059;-89
2021/01/15 10:09:25;;;;;;;9.68;5.15;;;1.80;98.20;;;;;;4970448;28;20417;-92
2021/01/15 10:11:53;;;;;;;9.40;5.75;;;1.70;98.70;;;;;;4937746;28;20141;-90
2021/01/15 10:14:19;;;;;;;11.15;5.97;;;1.90;99.60;;;;;;4936979;28;20105;-89
2021/01/15 10:16:47;;;;;;;11.73;6.78;;;2.00;99.80;;;;;;4953163;28;20038;-90
2021/01/15 10:19:13;;;;;;;12.00;7.45;;;2.10;99.90;;;;;;4954087;28;20105;-88
2021/01/15 10:21:40;;;;;;;9.80;6.43;;;1.90;99.90;;;;;;4964446;28;20135;-90
2021/01/15 10:24:08;;;;;;;10.38;5.75;;;2.10;99.90;;;;;;4948805;28;20473;-88
2021/01/15 10:26:35;;;;;;;17.50;6.25;;;2.10;99.70;;;;;;4965833;28;20045;-88
2021/01/15 10:29:13;;;;;;;13.70;6.55;;;2.00;99.30;;;;;;4950297;28;20046;-88
2021/01/15 10:31:50;;;;;;;9.07;5.47;;;2.00;99.90;;;;;;4941531;28;20188;-88
2021/01/15 10:34:17;;;;;;;15.10;6.60;;;2.10;99.70;;;;;;4963011;28;20636;-88
2021/01/15 10:36:43;;;;;;;9.95;6.15;;;2.10;99.90;;;;;;4946966;28;20146;-88
2021/01/15 10:39:10;;;;;;;11.98;6.88;;;2.20;99.90;;;;;;4964787;28;20047;-88
2021/01/15 10:41:41;;;;;;;12.52;6.75;;;2.30;99.90;;;;;;4963396;28;20066;-89
2021/01/15 10:44:09;;;;;;;13.82;7.05;;;2.30;99.90;;;;;;4967171;28;20039;-88
2021/01/15 10:46:39;;;;;;;9.40;6.18;;;2.20;99.40;;;;;;4951765;28;20090;-90
2021/01/15 10:49:06;;;;;;;10.82;6.50;;;2.20;99.20;;;;;;4953339;28;20571;-88
2021/01/15 10:51:32;;;;;;;10.75;6.68;;;2.10;99.20;;;;;;4964191;28;20629;-88
2021/01/15 10:53:58;;;;;;;11.65;5.97;;;2.20;99.70;;;;;;4963772;28;20055;-88
2021/01/15 10:56:32;;;;;;;19.45;7.07;;;2.10;99.80;;;;;;4967908;28;20129;-87
2021/01/15 10:58:58;;;;;;;8.35;4.53;;;2.20;99.10;;;;;;4980768;28;20500;-87
2021/01/15 11:01:39;;;;;;;10.23;6.10;;;2.30;98.70;;;;;;4968288;28;20043;-88
2021/01/15 11:04:08;;;;;;;14.10;7.03;;;2.10;98.40;;;;;;4964987;28;20034;-87
2021/01/15 11:06:36;;;;;;;14.38;6.15;;;2.00;99.00;;;;;;4973252;28;20050;-88
2021/01/15 11:09:12;;;;;;;11.05;6.53;;;2.00;98.20;;;;;;4966516;28;20705;-89
2021/01/15 11:11:56;;;;;;;7.72;5.05;;;2.00;98.70;;;;;;4968144;28;20087;-89
2021/01/15 11:14:22;;;;;;;8.68;6.07;;;1.90;97.70;;;;;;4947199;28;20062;-88
2021/01/15 11:16:48;;;;;;;9.68;5.72;;;1.90;98.10;;;;;;4943347;28;20137;-88
2021/01/15 11:19:15;;;;;;;12.02;6.22;;;1.90;97.30;;;;;;4952741;28;20488;-89
2021/01/15 11:21:41;;;;;;;11.02;6.30;;;2.00;98.90;;;;;;4951621;28;20094;-89
2021/01/15 11:24:08;;;;;;;9.68;4.75;;;2.00;97.80;;;;;;4952583;28;20097;-89
2021/01/15 11:26:34;;;;;;;6.93;5.18;;;1.90;97.70;;;;;;4951561;28;20082;-88
2021/01/15 11:29:03;;;;;;;7.32;5.00;;;2.00;97.20;;;;;;4946033;28;20047;-86
2021/01/15 11:31:30;;;;;;;12.68;4.68;;;1.90;96.90;;;;;;4958085;28;20071;-87
2021/01/15 11:33:56;;;;;;;7.45;5.30;;;1.80;96.30;;;;;;4967422;28;20051;-90
2021/01/15 11:36:23;;;;;;;8.90;4.10;;;1.80;95.80;;;;;;4945747;28;20145;-91
2021/01/15 11:38:51;;;;;;;7.53;3.70;;;1.90;95.50;;;;;;4953143;28;20050;-91
2021/01/15 11:41:18;;;;;;;7.72;5.57;;;1.80;95.90;;;;;;4951669;28;20117;-91
2021/01/15 11:43:47;;;;;;;8.68;5.40;;;1.80;96.00;;;;;;4952147;28;20065;-90
2021/01/15 11:46:13;;;;;;;5.57;4.32;;;1.90;95.50;;;;;;4968950;28;20047;-86
2021/01/15 11:48:39;;;;;;;7.35;3.78;;;2.10;94.70;;;;;;4983038;28;20524;-87
2021/01/15 11:51:09;;;;;;;4.60;3.85;;;1.90;95.30;;;;;;4967690;28;20034;-87
2021/01/15 11:53:37;;;;;;;9.55;4.28;;;1.80;94.80;;;;;;4950777;28;20042;-87
2021/01/15 11:56:04;;;;;;;6.55;3.97;;;1.80;95.00;;;;;;4967586;28;20105;-86
2021/01/15 11:58:31;;;;;;;8.65;4.80;;;1.80;94.40;;;;;;4967091;28;20074;-87
2021/01/15 12:00:57;;;;;;;5.43;3.15;;;1.80;95.50;;;;;;4967577;28;20082;-87
2021/01/15 12:03:23;;;;;;;10.15;4.15;;;1.80;94.40;;;;;;4974701;28;20125;-87
2021/01/15 12:05:51;;;;;;;4.13;3.72;;;1.90;94.70;;;;;;4949869;28;20053;-87
2021/01/15 12:08:19;;;;;;;4.90;4.10;;;1.80;95.20;;;;;;4970232;28;20043;-88
2021/01/15 12:10:47;;;;;;;9.27;4.38;;;1.90;95.30;;;;;;4968726;28;20043;-88
2021/01/15 12:13:13;;;;;;;6.25;3.72;;;1.90;94.40;;;;;;4955773;28;20055;-88
2021/01/15 12:15:39;;;;;;;5.32;3.65;;;1.90;94.70;;;;;;4954377;28;20053;-89
2021/01/15 12:18:05;;;;;;;6.18;3.78;;;2.10;94.60;;;;;;4938406;28;20046;-88
2021/01/15 12:20:37;;;;;;;5.13;3.63;;;1.90;95.30;;;;;;4976811;28;20049;-88
2021/01/15 12:23:05;;;;;;;6.03;3.90;;;1.90;94.80;;;;;;4975151;28;20058;-91
2021/01/15 12:25:32;;;;;;;7.63;3.67;;;1.90;95.20;;;;;;4959215;28;20042;-90
2021/01/15 12:27:58;;;;;;;5.50;3.75;;;1.80;94.10;;;;;;4977273;28;20169;-91
2021/01/15 12:30:24;;;;;;;5.13;4.00;;;1.90;94.40;;;;;;4958943;28;20067;-89
2021/01/15 12:32:53;;;;;;;7.18;4.00;;;1.80;94.20;;;;;;4998351;28;20145;-91
2021/01/15 12:35:22;;;;;;;5.90;3.95;;;1.80;94.60;;;;;;4956837;28;20129;-89
2021/01/15 12:37:50;;;;;;;4.30;3.28;;;1.80;95.00;;;;;;4952716;28;20608;-91
2021/01/15 12:40:16;;;;;;;5.38;3.15;;;1.80;94.30;;;;;;4951636;28;20485;-91
2021/01/15 12:42:50;;;;;;;7.63;4.15;;;1.80;94.90;;;;;;4971961;28;20053;-90
2021/01/15 12:45:16;;;;;;;6.20;3.80;;;1.90;95.10;;;;;;4954099;28;20061;-83
2021/01/15 12:53:57;;;;;;;5.15;3.45;;;1.90;95.60;;;;;;4973620;28;20066;-84
2021/01/15 12:56:23;;;;;;;6.40;3.85;;;1.90;96.20;;;;;;4963103;28;20043;-84
2021/01/15 12:58:49;;;;;;;16.42;4.00;;;2.00;95.30;;;;;;4957372;28;20626;-84
2021/01/15 13:01:15;;;;;;;7.07;3.42;;;1.90;94.70;;;;;;4963021;28;20051;-84
2021/01/15 13:03:41;;;;;;;5.10;3.38;;;2.00;94.20;;;;;;4956522;28;20055;-85
2021/01/15 13:06:06;;;;;;;6.63;3.42;;;1.90;94.40;;;;;;4941126;28;20081;-84
2021/01/15 13:08:32;;;;;;;5.25;3.90;;;1.90;94.50;;;;;;4956494;28;20094;-84
2021/01/15 13:10:58;;;;;;;6.55;3.53;;;1.90;94.30;;;;;;4974251;28;20488;-86